sensor_id;sensor_type;location;lat;lon;timestamp;P1;durP1;ratioP1;P2;durP2;ratioP2
76259;SDS011;65076;52.362;6.588;2023-05-10T00:02:35;6.20;;;4.38;;
76259;SDS011;65076;52.362;6.588;2023-05-10T00:07:04;8.73;;;5.40;;
76259;SDS011;65076;52.362;6.588;2023-05-10T00:11:34;9.95;;;6.28;;
76259;SDS011;65076;52.362;6.588;2023-05-10T00:16:03;7.45;;;5.05;;
76259;SDS011;65076;52.362;6.588;2023-05-10T00:20:34;10.02;;;6.00;;
76259;SDS011;65076;52.362;6.588;2023-05-10T00:25:06;8.43;;;5.85;;
76259;SDS011;65076;52.362;6.588;2023-05-10T00:29:36;9.45;;;6.03;;
76259;SDS011;65076;52.362;6.588;2023-05-10T00:34:05;10.93;;;7.03;;
76259;SDS011;65076;52.362;6.588;2023-05-10T00:38:36;10.40;;;7.07;;
76259;SDS011;65076;52.362;6.588;2023-05-10T00:43:06;12.50;;;6.57;;
76259;SDS011;65076;52.362;6.588;2023-05-10T00:47:35;12.13;;;6.40;;
76259;SDS011;65076;52.362;6.588;2023-05-10T00:52:05;10.23;;;6.72;;
76259;SDS011;65076;52.362;6.588;2023-05-10T00:56:35;8.98;;;6.60;;
76259;SDS011;65076;52.362;6.588;2023-05-10T01:01:05;13.73;;;7.32;;
76259;SDS011;65076;52.362;6.588;2023-05-10T01:05:35;9.10;;;5.80;;
76259;SDS011;65076;52.362;6.588;2023-05-10T01:10:05;10.45;;;6.53;;
76259;SDS011;65076;52.362;6.588;2023-05-10T01:14:36;10.30;;;6.80;;
76259;SDS011;65076;52.362;6.588;2023-05-10T01:19:09;12.07;;;6.97;;
76259;SDS011;65076;52.362;6.588;2023-05-10T01:23:45;10.98;;;6.90;;
76259;SDS011;65076;52.362;6.588;2023-05-10T01:28:41;12.32;;;6.30;;
76259;SDS011;65076;52.362;6.588;2023-05-10T01:33:28;11.73;;;6.13;;
76259;SDS011;65076;52.362;6.588;2023-05-10T01:38:07;10.80;;;6.78;;
76259;SDS011;65076;52.362;6.588;2023-05-10T01:42:40;11.65;;;6.32;;
76259;SDS011;65076;52.362;6.588;2023-05-10T01:47:17;11.57;;;6.47;;
76259;SDS011;65076;52.362;6.588;2023-05-10T01:51:52;11.02;;;6.78;;
76259;SDS011;65076;52.362;6.588;2023-05-10T01:56:26;11.45;;;6.95;;
76259;SDS011;65076;52.362;6.588;2023-05-10T02:01:03;11.82;;;6.47;;
76259;SDS011;65076;52.362;6.588;2023-05-10T02:05:35;11.02;;;6.63;;
76259;SDS011;65076;52.362;6.588;2023-05-10T02:10:07;11.35;;;6.25;;
76259;SDS011;65076;52.362;6.588;2023-05-10T02:14:38;11.55;;;6.72;;
76259;SDS011;65076;52.362;6.588;2023-05-10T02:19:09;12.13;;;6.22;;
76259;SDS011;65076;52.362;6.588;2023-05-10T02:23:40;12.02;;;6.60;;
76259;SDS011;65076;52.362;6.588;2023-05-10T02:28:11;12.43;;;6.55;;
76259;SDS011;65076;52.362;6.588;2023-05-10T02:32:43;11.55;;;6.95;;
76259;SDS011;65076;52.362;6.588;2023-05-10T02:37:18;11.25;;;6.90;;
76259;SDS011;65076;52.362;6.588;2023-05-10T02:41:49;11.43;;;6.38;;
76259;SDS011;65076;52.362;6.588;2023-05-10T02:46:22;10.65;;;6.40;;
76259;SDS011;65076;52.362;6.588;2023-05-10T02:50:52;13.65;;;7.22;;
76259;SDS011;65076;52.362;6.588;2023-05-10T02:55:26;13.40;;;7.35;;
76259;SDS011;65076;52.362;6.588;2023-05-10T03:00:02;13.63;;;6.63;;
76259;SDS011;65076;52.362;6.588;2023-05-10T03:04:32;17.48;;;8.73;;
76259;SDS011;65076;52.362;6.588;2023-05-10T03:09:02;14.13;;;7.40;;
76259;SDS011;65076;52.362;6.588;2023-05-10T03:13:34;15.68;;;8.15;;
76259;SDS011;65076;52.362;6.588;2023-05-10T03:18:12;17.80;;;8.60;;
76259;SDS011;65076;52.362;6.588;2023-05-10T03:22:50;18.02;;;8.32;;
76259;SDS011;65076;52.362;6.588;2023-05-10T03:31:51;17.20;;;8.50;;
76259;SDS011;65076;52.362;6.588;2023-05-10T03:36:20;22.42;;;9.80;;
76259;SDS011;65076;52.362;6.588;2023-05-10T03:40:53;20.10;;;9.73;;
76259;SDS011;65076;52.362;6.588;2023-05-10T03:45:23;21.05;;;10.07;;
76259;SDS011;65076;52.362;6.588;2023-05-10T03:49:52;22.42;;;10.18;;
76259;SDS011;65076;52.362;6.588;2023-05-10T03:54:21;24.65;;;12.00;;
76259;SDS011;65076;52.362;6.588;2023-05-10T03:58:52;23.60;;;11.13;;
76259;SDS011;65076;52.362;6.588;2023-05-10T04:03:22;27.27;;;11.68;;
76259;SDS011;65076;52.362;6.588;2023-05-10T04:07:51;23.83;;;10.90;;
76259;SDS011;65076;52.362;6.588;2023-05-10T04:12:20;29.83;;;12.48;;
76259;SDS011;65076;52.362;6.588;2023-05-10T04:16:53;27.05;;;11.80;;
76259;SDS011;65076;52.362;6.588;2023-05-10T04:21:22;35.20;;;14.65;;
76259;SDS011;65076;52.362;6.588;2023-05-10T04:25:52;32.03;;;13.50;;
76259;SDS011;65076;52.362;6.588;2023-05-10T04:30:21;31.52;;;14.52;;
76259;SDS011;65076;52.362;6.588;2023-05-10T04:34:52;32.90;;;14.38;;
76259;SDS011;65076;52.362;6.588;2023-05-10T04:39:21;34.17;;;13.10;;
76259;SDS011;65076;52.362;6.588;2023-05-10T04:43:51;38.95;;;15.43;;
76259;SDS011;65076;52.362;6.588;2023-05-10T04:48:20;36.38;;;14.55;;
76259;SDS011;65076;52.362;6.588;2023-05-10T04:52:51;43.13;;;15.75;;
76259;SDS011;65076;52.362;6.588;2023-05-10T04:57:21;39.08;;;15.75;;
76259;SDS011;65076;52.362;6.588;2023-05-10T05:01:50;41.53;;;16.23;;
76259;SDS011;65076;52.362;6.588;2023-05-10T05:06:20;40.17;;;16.55;;
76259;SDS011;65076;52.362;6.588;2023-05-10T05:10:51;46.25;;;16.80;;
76259;SDS011;65076;52.362;6.588;2023-05-10T05:15:20;52.40;;;17.60;;
76259;SDS011;65076;52.362;6.588;2023-05-10T05:19:50;45.38;;;16.52;;
76259;SDS011;65076;52.362;6.588;2023-05-10T05:24:19;44.15;;;18.13;;
76259;SDS011;65076;52.362;6.588;2023-05-10T05:28:51;55.78;;;18.05;;
76259;SDS011;65076;52.362;6.588;2023-05-10T05:33:20;53.97;;;17.83;;
76259;SDS011;65076;52.362;6.588;2023-05-10T05:37:49;49.17;;;18.70;;
76259;SDS011;65076;52.362;6.588;2023-05-10T05:42:20;45.60;;;18.13;;
76259;SDS011;65076;52.362;6.588;2023-05-10T05:46:51;50.10;;;19.52;;
76259;SDS011;65076;52.362;6.588;2023-05-10T05:51:20;45.88;;;19.70;;
76259;SDS011;65076;52.362;6.588;2023-05-10T05:55:53;45.47;;;18.05;;
76259;SDS011;65076;52.362;6.588;2023-05-10T06:00:24;51.50;;;19.08;;
76259;SDS011;65076;52.362;6.588;2023-05-10T06:04:55;47.30;;;17.38;;
76259;SDS011;65076;52.362;6.588;2023-05-10T06:09:24;46.97;;;17.98;;
76259;SDS011;65076;52.362;6.588;2023-05-10T06:13:53;43.20;;;16.83;;
76259;SDS011;65076;52.362;6.588;2023-05-10T06:18:22;44.35;;;16.77;;
76259;SDS011;65076;52.362;6.588;2023-05-10T06:22:53;42.60;;;18.67;;
76259;SDS011;65076;52.362;6.588;2023-05-10T06:27:23;46.30;;;19.95;;
76259;SDS011;65076;52.362;6.588;2023-05-10T06:31:52;46.95;;;18.48;;
76259;SDS011;65076;52.362;6.588;2023-05-10T06:36:22;42.28;;;17.38;;
76259;SDS011;65076;52.362;6.588;2023-05-10T06:40:52;41.60;;;16.08;;
76259;SDS011;65076;52.362;6.588;2023-05-10T06:45:22;34.58;;;14.30;;
76259;SDS011;65076;52.362;6.588;2023-05-10T06:49:51;42.00;;;18.45;;
76259;SDS011;65076;52.362;6.588;2023-05-10T06:54:21;30.73;;;13.63;;
76259;SDS011;65076;52.362;6.588;2023-05-10T06:58:53;37.30;;;15.00;;
76259;SDS011;65076;52.362;6.588;2023-05-10T07:03:25;33.47;;;14.70;;
76259;SDS011;65076;52.362;6.588;2023-05-10T07:07:55;33.35;;;17.25;;
76259;SDS011;65076;52.362;6.588;2023-05-10T07:12:25;33.92;;;15.65;;
76259;SDS011;65076;52.362;6.588;2023-05-10T07:16:55;27.45;;;12.82;;
76259;SDS011;65076;52.362;6.588;2023-05-10T07:21:25;31.77;;;16.40;;
76259;SDS011;65076;52.362;6.588;2023-05-10T07:25:54;29.67;;;15.70;;
76259;SDS011;65076;52.362;6.588;2023-05-10T07:30:23;27.63;;;13.80;;
76259;SDS011;65076;52.362;6.588;2023-05-10T07:34:54;34.55;;;16.02;;
76259;SDS011;65076;52.362;6.588;2023-05-10T07:39:23;32.70;;;16.98;;
76259;SDS011;65076;52.362;6.588;2023-05-10T07:43:53;32.30;;;14.25;;
76259;SDS011;65076;52.362;6.588;2023-05-10T07:48:23;37.05;;;16.08;;
76259;SDS011;65076;52.362;6.588;2023-05-10T07:52:54;30.73;;;14.85;;
76259;SDS011;65076;52.362;6.588;2023-05-10T07:57:23;32.88;;;15.25;;
76259;SDS011;65076;52.362;6.588;2023-05-10T08:01:53;39.95;;;16.50;;
76259;SDS011;65076;52.362;6.588;2023-05-10T08:06:22;31.00;;;14.50;;
76259;SDS011;65076;52.362;6.588;2023-05-10T08:10:53;38.05;;;16.80;;
76259;SDS011;65076;52.362;6.588;2023-05-10T08:15:22;32.65;;;15.43;;
76259;SDS011;65076;52.362;6.588;2023-05-10T08:19:52;33.38;;;16.02;;
76259;SDS011;65076;52.362;6.588;2023-05-10T08:24:21;26.73;;;11.68;;
76259;SDS011;65076;52.362;6.588;2023-05-10T08:28:52;24.13;;;11.18;;
76259;SDS011;65076;52.362;6.588;2023-05-10T08:33:21;20.40;;;9.73;;
76259;SDS011;65076;52.362;6.588;2023-05-10T08:37:51;19.85;;;10.45;;
76259;SDS011;65076;52.362;6.588;2023-05-10T08:42:21;23.15;;;11.27;;
76259;SDS011;65076;52.362;6.588;2023-05-10T08:46:53;20.23;;;9.57;;
76259;SDS011;65076;52.362;6.588;2023-05-10T08:51:24;23.25;;;9.50;;
76259;SDS011;65076;52.362;6.588;2023-05-10T08:55:56;19.17;;;10.52;;
76259;SDS011;65076;52.362;6.588;2023-05-10T09:00:26;17.40;;;9.35;;
76259;SDS011;65076;52.362;6.588;2023-05-10T09:04:58;18.25;;;7.95;;
76259;SDS011;65076;52.362;6.588;2023-05-10T09:09:28;16.95;;;8.30;;
76259;SDS011;65076;52.362;6.588;2023-05-10T09:13:58;15.18;;;7.20;;
76259;SDS011;65076;52.362;6.588;2023-05-10T09:18:46;16.83;;;6.78;;
76259;SDS011;65076;52.362;6.588;2023-05-10T09:23:18;11.38;;;6.07;;
76259;SDS011;65076;52.362;6.588;2023-05-10T09:32:21;14.45;;;8.15;;
76259;SDS011;65076;52.362;6.588;2023-05-10T09:36:51;13.18;;;7.70;;
76259;SDS011;65076;52.362;6.588;2023-05-10T09:41:23;16.38;;;9.07;;
76259;SDS011;65076;52.362;6.588;2023-05-10T09:45:53;14.30;;;7.18;;
76259;SDS011;65076;52.362;6.588;2023-05-10T09:50:22;13.75;;;7.40;;
76259;SDS011;65076;52.362;6.588;2023-05-10T09:54:52;12.32;;;6.90;;
76259;SDS011;65076;52.362;6.588;2023-05-10T09:59:24;14.75;;;7.32;;
76259;SDS011;65076;52.362;6.588;2023-05-10T10:03:54;10.85;;;6.07;;
76259;SDS011;65076;52.362;6.588;2023-05-10T10:08:23;11.77;;;5.88;;
76259;SDS011;65076;52.362;6.588;2023-05-10T10:12:53;14.13;;;6.45;;
76259;SDS011;65076;52.362;6.588;2023-05-10T10:17:26;10.65;;;5.85;;
76259;SDS011;65076;52.362;6.588;2023-05-10T10:21:56;9.50;;;4.07;;
76259;SDS011;65076;52.362;6.588;2023-05-10T10:26:26;10.27;;;4.90;;
76259;SDS011;65076;52.362;6.588;2023-05-10T10:31:01;9.35;;;4.82;;
76259;SDS011;65076;52.362;6.588;2023-05-10T10:35:54;9.82;;;4.63;;
76259;SDS011;65076;52.362;6.588;2023-05-10T10:40:26;8.00;;;4.38;;
76259;SDS011;65076;52.362;6.588;2023-05-10T10:45:11;8.15;;;5.00;;
76259;SDS011;65076;52.362;6.588;2023-05-10T10:49:48;6.85;;;4.50;;
76259;SDS011;65076;52.362;6.588;2023-05-10T10:58:50;7.60;;;4.15;;
76259;SDS011;65076;52.362;6.588;2023-05-10T11:03:22;6.85;;;3.97;;
76259;SDS011;65076;52.362;6.588;2023-05-10T11:07:54;4.68;;;3.15;;
76259;SDS011;65076;52.362;6.588;2023-05-10T11:12:25;3.67;;;2.92;;
76259;SDS011;65076;52.362;6.588;2023-05-10T11:17:00;5.60;;;2.95;;
76259;SDS011;65076;52.362;6.588;2023-05-10T11:21:30;5.00;;;2.63;;
76259;SDS011;65076;52.362;6.588;2023-05-10T11:26:22;6.70;;;3.80;;
76259;SDS011;65076;52.362;6.588;2023-05-10T11:30:53;7.93;;;4.30;;
76259;SDS011;65076;52.362;6.588;2023-05-10T11:35:29;4.80;;;3.17;;
76259;SDS011;65076;52.362;6.588;2023-05-10T11:40:01;5.57;;;3.63;;
76259;SDS011;65076;52.362;6.588;2023-05-10T11:44:31;5.03;;;3.55;;
76259;SDS011;65076;52.362;6.588;2023-05-10T11:49:04;5.25;;;3.25;;
76259;SDS011;65076;52.362;6.588;2023-05-10T11:53:33;7.07;;;3.53;;
76259;SDS011;65076;52.362;6.588;2023-05-10T11:58:02;4.68;;;3.40;;
76259;SDS011;65076;52.362;6.588;2023-05-10T12:02:32;7.43;;;3.67;;
76259;SDS011;65076;52.362;6.588;2023-05-10T12:07:03;6.88;;;3.40;;
76259;SDS011;65076;52.362;6.588;2023-05-10T12:12:05;6.72;;;3.47;;
76259;SDS011;65076;52.362;6.588;2023-05-10T12:16:34;6.97;;;3.40;;
76259;SDS011;65076;52.362;6.588;2023-05-10T12:21:07;4.82;;;3.47;;
76259;SDS011;65076;52.362;6.588;2023-05-10T12:25:42;4.65;;;3.10;;
76259;SDS011;65076;52.362;6.588;2023-05-10T12:30:12;9.40;;;3.55;;
76259;SDS011;65076;52.362;6.588;2023-05-10T12:34:42;6.85;;;3.83;;
76259;SDS011;65076;52.362;6.588;2023-05-10T12:39:17;6.88;;;3.70;;
76259;SDS011;65076;52.362;6.588;2023-05-10T12:43:51;6.25;;;3.72;;
76259;SDS011;65076;52.362;6.588;2023-05-10T12:48:24;7.40;;;3.92;;
76259;SDS011;65076;52.362;6.588;2023-05-10T12:52:54;5.10;;;3.90;;
76259;SDS011;65076;52.362;6.588;2023-05-10T12:57:26;4.75;;;3.00;;
76259;SDS011;65076;52.362;6.588;2023-05-10T13:01:56;3.55;;;2.90;;
76259;SDS011;65076;52.362;6.588;2023-05-10T13:06:26;5.60;;;3.55;;
76259;SDS011;65076;52.362;6.588;2023-05-10T13:10:59;4.15;;;2.38;;
76259;SDS011;65076;52.362;6.588;2023-05-10T13:15:30;5.47;;;3.20;;
76259;SDS011;65076;52.362;6.588;2023-05-10T13:19:59;4.68;;;3.08;;
76259;SDS011;65076;52.362;6.588;2023-05-10T13:24:28;5.15;;;2.95;;
76259;SDS011;65076;52.362;6.588;2023-05-10T13:28:58;5.18;;;3.40;;
76259;SDS011;65076;52.362;6.588;2023-05-10T13:33:29;5.10;;;3.70;;
76259;SDS011;65076;52.362;6.588;2023-05-10T13:37:58;5.68;;;2.97;;
76259;SDS011;65076;52.362;6.588;2023-05-10T13:42:28;5.25;;;3.63;;
76259;SDS011;65076;52.362;6.588;2023-05-10T13:47:01;7.22;;;3.72;;
76259;SDS011;65076;52.362;6.588;2023-05-10T13:51:34;6.90;;;4.28;;
76259;SDS011;65076;52.362;6.588;2023-05-10T13:56:04;8.32;;;4.38;;
76259;SDS011;65076;52.362;6.588;2023-05-10T14:00:33;6.75;;;4.07;;
76259;SDS011;65076;52.362;6.588;2023-05-10T14:05:03;6.75;;;4.82;;
76259;SDS011;65076;52.362;6.588;2023-05-10T14:09:34;9.25;;;5.22;;
76259;SDS011;65076;52.362;6.588;2023-05-10T14:14:03;6.43;;;4.40;;
76259;SDS011;65076;52.362;6.588;2023-05-10T14:18:35;7.85;;;4.40;;
76259;SDS011;65076;52.362;6.588;2023-05-10T14:23:05;7.38;;;4.65;;
76259;SDS011;65076;52.362;6.588;2023-05-10T14:27:36;8.63;;;5.20;;
76259;SDS011;65076;52.362;6.588;2023-05-10T14:32:05;8.13;;;5.68;;
76259;SDS011;65076;52.362;6.588;2023-05-10T14:36:34;9.40;;;5.50;;
76259;SDS011;65076;52.362;6.588;2023-05-10T14:41:03;9.23;;;5.22;;
76259;SDS011;65076;52.362;6.588;2023-05-10T14:45:34;12.25;;;5.57;;
76259;SDS011;65076;52.362;6.588;2023-05-10T14:50:07;11.70;;;5.57;;
76259;SDS011;65076;52.362;6.588;2023-05-10T14:54:38;10.38;;;4.85;;
76259;SDS011;65076;52.362;6.588;2023-05-10T14:59:08;8.80;;;4.40;;
76259;SDS011;65076;52.362;6.588;2023-05-10T15:03:39;9.05;;;4.65;;
76259;SDS011;65076;52.362;6.588;2023-05-10T15:08:08;6.28;;;4.75;;
76259;SDS011;65076;52.362;6.588;2023-05-10T15:12:39;7.60;;;4.80;;
76259;SDS011;65076;52.362;6.588;2023-05-10T15:17:08;8.80;;;5.30;;
76259;SDS011;65076;52.362;6.588;2023-05-10T15:21:39;12.32;;;5.50;;
76259;SDS011;65076;52.362;6.588;2023-05-10T15:26:09;8.35;;;5.25;;
76259;SDS011;65076;52.362;6.588;2023-05-10T15:30:38;7.72;;;5.07;;
76259;SDS011;65076;52.362;6.588;2023-05-10T15:35:09;10.35;;;5.95;;
76259;SDS011;65076;52.362;6.588;2023-05-10T15:39:39;8.90;;;6.03;;
76259;SDS011;65076;52.362;6.588;2023-05-10T15:44:09;9.00;;;5.38;;
76259;SDS011;65076;52.362;6.588;2023-05-10T15:48:39;11.73;;;5.57;;
76259;SDS011;65076;52.362;6.588;2023-05-10T15:53:08;8.60;;;5.10;;
76259;SDS011;65076;52.362;6.588;2023-05-10T15:57:40;9.38;;;6.07;;
76259;SDS011;65076;52.362;6.588;2023-05-10T16:02:10;9.93;;;5.72;;
76259;SDS011;65076;52.362;6.588;2023-05-10T16:06:39;9.25;;;6.18;;
76259;SDS011;65076;52.362;6.588;2023-05-10T16:11:09;8.18;;;4.57;;
76259;SDS011;65076;52.362;6.588;2023-05-10T16:15:42;7.18;;;5.00;;
76259;SDS011;65076;52.362;6.588;2023-05-10T16:20:12;9.65;;;5.32;;
76259;SDS011;65076;52.362;6.588;2023-05-10T16:24:42;10.38;;;6.10;;
76259;SDS011;65076;52.362;6.588;2023-05-10T16:29:11;8.40;;;5.47;;
76259;SDS011;65076;52.362;6.588;2023-05-10T16:33:44;8.10;;;5.25;;
76259;SDS011;65076;52.362;6.588;2023-05-10T16:38:14;10.13;;;4.97;;
76259;SDS011;65076;52.362;6.588;2023-05-10T16:42:43;10.32;;;5.22;;
76259;SDS011;65076;52.362;6.588;2023-05-10T16:47:13;10.35;;;5.82;;
76259;SDS011;65076;52.362;6.588;2023-05-10T16:51:44;9.48;;;6.47;;
76259;SDS011;65076;52.362;6.588;2023-05-10T16:56:14;11.02;;;5.30;;
76259;SDS011;65076;52.362;6.588;2023-05-10T17:00:43;10.05;;;6.13;;
76259;SDS011;65076;52.362;6.588;2023-05-10T17:05:14;10.10;;;6.47;;
76259;SDS011;65076;52.362;6.588;2023-05-10T17:09:46;9.23;;;5.72;;
76259;SDS011;65076;52.362;6.588;2023-05-10T17:14:16;12.00;;;7.00;;
76259;SDS011;65076;52.362;6.588;2023-05-10T17:18:46;9.65;;;6.70;;
76259;SDS011;65076;52.362;6.588;2023-05-10T17:23:15;7.88;;;5.70;;
76259;SDS011;65076;52.362;6.588;2023-05-10T17:27:46;9.77;;;5.50;;
76259;SDS011;65076;52.362;6.588;2023-05-10T17:32:16;10.45;;;5.88;;
76259;SDS011;65076;52.362;6.588;2023-05-10T17:36:48;9.52;;;5.78;;
76259;SDS011;65076;52.362;6.588;2023-05-10T17:41:17;10.75;;;6.03;;
76259;SDS011;65076;52.362;6.588;2023-05-10T17:45:51;11.60;;;6.82;;
76259;SDS011;65076;52.362;6.588;2023-05-10T17:50:22;10.18;;;6.50;;
76259;SDS011;65076;52.362;6.588;2023-05-10T17:54:53;15.27;;;9.18;;
76259;SDS011;65076;52.362;6.588;2023-05-10T17:59:26;11.32;;;6.35;;
76259;SDS011;65076;52.362;6.588;2023-05-10T18:03:57;10.82;;;6.30;;
76259;SDS011;65076;52.362;6.588;2023-05-10T18:08:26;12.73;;;6.40;;
76259;SDS011;65076;52.362;6.588;2023-05-10T18:12:56;9.35;;;6.32;;
76259;SDS011;65076;52.362;6.588;2023-05-10T18:17:25;10.52;;;6.10;;
76259;SDS011;65076;52.362;6.588;2023-05-10T18:21:55;12.93;;;6.78;;
76259;SDS011;65076;52.362;6.588;2023-05-10T18:26:25;11.23;;;5.93;;
76259;SDS011;65076;52.362;6.588;2023-05-10T18:30:55;11.52;;;7.80;;
76259;SDS011;65076;52.362;6.588;2023-05-10T18:35:25;23.63;;;13.70;;
76259;SDS011;65076;52.362;6.588;2023-05-10T18:39:56;21.20;;;8.40;;
76259;SDS011;65076;52.362;6.588;2023-05-10T18:44:25;14.68;;;8.30;;
76259;SDS011;65076;52.362;6.588;2023-05-10T18:48:55;17.58;;;9.98;;
76259;SDS011;65076;52.362;6.588;2023-05-10T18:53:24;24.75;;;12.27;;
76259;SDS011;65076;52.362;6.588;2023-05-10T18:57:56;14.35;;;8.52;;
76259;SDS011;65076;52.362;6.588;2023-05-10T19:02:25;14.38;;;7.60;;
76259;SDS011;65076;52.362;6.588;2023-05-10T19:06:58;14.07;;;8.40;;
76259;SDS011;65076;52.362;6.588;2023-05-10T19:11:29;17.35;;;11.25;;
76259;SDS011;65076;52.362;6.588;2023-05-10T19:16:02;16.75;;;10.05;;
76259;SDS011;65076;52.362;6.588;2023-05-10T19:20:34;12.43;;;7.15;;
76259;SDS011;65076;52.362;6.588;2023-05-10T19:25:23;22.48;;;13.32;;
76259;SDS011;65076;52.362;6.588;2023-05-10T19:29:52;12.40;;;7.53;;
76259;SDS011;65076;52.362;6.588;2023-05-10T19:34:24;13.13;;;7.55;;
76259;SDS011;65076;52.362;6.588;2023-05-10T19:38:53;12.75;;;6.47;;
76259;SDS011;65076;52.362;6.588;2023-05-10T19:43:26;13.10;;;6.95;;
76259;SDS011;65076;52.362;6.588;2023-05-10T19:47:55;12.90;;;6.97;;
76259;SDS011;65076;52.362;6.588;2023-05-10T19:52:34;11.20;;;7.55;;
76259;SDS011;65076;52.362;6.588;2023-05-10T20:01:37;12.18;;;7.32;;
76259;SDS011;65076;52.362;6.588;2023-05-10T20:06:07;12.02;;;7.63;;
76259;SDS011;65076;52.362;6.588;2023-05-10T20:10:39;15.65;;;8.70;;
76259;SDS011;65076;52.362;6.588;2023-05-10T20:15:09;15.60;;;9.75;;
76259;SDS011;65076;52.362;6.588;2023-05-10T20:19:40;13.32;;;7.00;;
76259;SDS011;65076;52.362;6.588;2023-05-10T20:24:11;11.18;;;6.93;;
76259;SDS011;65076;52.362;6.588;2023-05-10T20:28:43;12.80;;;7.43;;
76259;SDS011;65076;52.362;6.588;2023-05-10T20:33:12;13.55;;;7.40;;
76259;SDS011;65076;52.362;6.588;2023-05-10T20:37:52;19.88;;;10.38;;
76259;SDS011;65076;52.362;6.588;2023-05-10T20:42:26;13.65;;;8.88;;
76259;SDS011;65076;52.362;6.588;2023-05-10T20:46:58;11.07;;;6.53;;
76259;SDS011;65076;52.362;6.588;2023-05-10T20:51:27;10.38;;;6.38;;
76259;SDS011;65076;52.362;6.588;2023-05-10T20:55:57;12.60;;;6.68;;
76259;SDS011;65076;52.362;6.588;2023-05-10T21:00:30;13.93;;;6.35;;
76259;SDS011;65076;52.362;6.588;2023-05-10T21:05:00;10.75;;;7.07;;
76259;SDS011;65076;52.362;6.588;2023-05-10T21:09:30;10.75;;;6.95;;
76259;SDS011;65076;52.362;6.588;2023-05-10T21:14:01;11.18;;;7.18;;
76259;SDS011;65076;52.362;6.588;2023-05-10T21:18:30;10.07;;;6.53;;
76259;SDS011;65076;52.362;6.588;2023-05-10T21:23:01;10.50;;;5.85;;
76259;SDS011;65076;52.362;6.588;2023-05-10T21:27:31;13.13;;;6.70;;
76259;SDS011;65076;52.362;6.588;2023-05-10T21:32:02;11.13;;;6.18;;
76259;SDS011;65076;52.362;6.588;2023-05-10T21:36:34;11.65;;;6.50;;
76259;SDS011;65076;52.362;6.588;2023-05-10T21:41:06;10.63;;;5.95;;
76259;SDS011;65076;52.362;6.588;2023-05-10T21:45:36;9.60;;;5.90;;
76259;SDS011;65076;52.362;6.588;2023-05-10T21:50:06;12.23;;;6.65;;
76259;SDS011;65076;52.362;6.588;2023-05-10T21:54:36;11.70;;;6.55;;
76259;SDS011;65076;52.362;6.588;2023-05-10T21:59:07;12.13;;;6.45;;
76259;SDS011;65076;52.362;6.588;2023-05-10T22:03:37;8.80;;;5.50;;
76259;SDS011;65076;52.362;6.588;2023-05-10T22:08:06;10.73;;;6.43;;
76259;SDS011;65076;52.362;6.588;2023-05-10T22:12:36;10.23;;;6.47;;
76259;SDS011;65076;52.362;6.588;2023-05-10T22:17:06;10.20;;;6.10;;
76259;SDS011;65076;52.362;6.588;2023-05-10T22:21:36;11.30;;;6.90;;
76259;SDS011;65076;52.362;6.588;2023-05-10T22:26:05;8.48;;;5.65;;
76259;SDS011;65076;52.362;6.588;2023-05-10T22:30:34;8.73;;;5.22;;
76259;SDS011;65076;52.362;6.588;2023-05-10T22:35:06;13.15;;;7.60;;
76259;SDS011;65076;52.362;6.588;2023-05-10T22:39:37;10.60;;;5.90;;
76259;SDS011;65076;52.362;6.588;2023-05-10T22:44:08;9.82;;;6.18;;
76259;SDS011;65076;52.362;6.588;2023-05-10T22:48:38;11.48;;;6.25;;
76259;SDS011;65076;52.362;6.588;2023-05-10T22:53:09;12.45;;;7.57;;
76259;SDS011;65076;52.362;6.588;2023-05-10T22:57:41;9.82;;;5.85;;
76259;SDS011;65076;52.362;6.588;2023-05-10T23:02:11;9.68;;;5.88;;
76259;SDS011;65076;52.362;6.588;2023-05-10T23:06:40;12.82;;;6.25;;
76259;SDS011;65076;52.362;6.588;2023-05-10T23:11:11;11.25;;;6.63;;
76259;SDS011;65076;52.362;6.588;2023-05-10T23:15:41;10.98;;;6.28;;
76259;SDS011;65076;52.362;6.588;2023-05-10T23:20:11;11.38;;;6.15;;
76259;SDS011;65076;52.362;6.588;2023-05-10T23:24:42;10.13;;;5.97;;
76259;SDS011;65076;52.362;6.588;2023-05-10T23:29:14;11.15;;;7.15;;
76259;SDS011;65076;52.362;6.588;2023-05-10T23:33:43;10.77;;;6.75;;
76259;SDS011;65076;52.362;6.588;2023-05-10T23:38:13;11.32;;;6.80;;
76259;SDS011;65076;52.362;6.588;2023-05-10T23:42:45;11.93;;;6.47;;
76259;SDS011;65076;52.362;6.588;2023-05-10T23:47:19;10.82;;;6.30;;
76259;SDS011;65076;52.362;6.588;2023-05-10T23:51:48;11.15;;;6.72;;
76259;SDS011;65076;52.362;6.588;2023-05-10T23:56:20;10.32;;;7.40;;
